createdAt,value
2018-09-27T00:00:47.075Z,99.99
2018-09-27T00:01:46.991Z,99.99
2018-09-27T00:02:46.879Z,99.99
2018-09-27T00:03:46.784Z,99.99
2018-09-27T00:04:46.682Z,99.99
2018-09-27T00:05:46.583Z,99.99
2018-09-27T00:06:46.505Z,99.99
2018-09-27T00:07:46.391Z,99.99
2018-09-27T00:08:46.291Z,99.99
2018-09-27T00:09:46.195Z,99.99
2018-09-27T00:10:46.099Z,99.99
2018-09-27T00:11:46.021Z,99.99
2018-09-27T00:12:45.899Z,99.99
2018-09-27T00:13:45.804Z,99.99
2018-09-27T00:14:45.711Z,99.99
2018-09-27T00:15:45.607Z,99.99
2018-09-27T00:16:45.511Z,99.99
2018-09-27T00:17:45.431Z,99.99
2018-09-27T00:18:45.319Z,99.99
2018-09-27T00:19:45.218Z,99.99
2018-09-27T00:20:45.124Z,99.99
2018-09-27T00:21:45.023Z,99.99
2018-09-27T00:22:44.938Z,99.99
2018-09-27T00:23:44.826Z,99.99
2018-09-27T00:24:44.727Z,99.99
2018-09-27T00:25:44.629Z,99.99
2018-09-27T00:26:44.535Z,99.99
2018-09-27T00:27:44.453Z,99.99
2018-09-27T00:28:44.341Z,99.99
2018-09-27T00:29:44.240Z,99.99
2018-09-27T00:30:44.141Z,99.99
2018-09-27T00:31:44.047Z,99.99
2018-09-27T00:32:43.962Z,99.99
2018-09-27T00:33:43.850Z,99.99
2018-09-27T00:34:43.754Z,99.99
2018-09-27T00:35:43.654Z,99.99
2018-09-27T00:36:43.556Z,99.99
2018-09-27T00:37:43.477Z,99.99
2018-09-27T00:38:43.361Z,99.99
2018-09-27T00:39:43.263Z,99.99
2018-09-27T00:40:43.165Z,99.99
2018-09-27T00:41:43.066Z,99.99
2018-09-27T00:42:42.993Z,99.99
2018-09-27T00:43:42.873Z,99.99
2018-09-27T00:44:42.777Z,99.99
2018-09-27T00:45:42.679Z,99.99
2018-09-27T00:46:42.579Z,99.99
2018-09-27T00:47:42.497Z,99.99
2018-09-27T00:48:42.383Z,99.99
2018-09-27T00:49:42.289Z,99.99
2018-09-27T00:50:42.188Z,99.99
2018-09-27T00:51:42.089Z,99.99
2018-09-27T00:52:42.012Z,99.99
2018-09-27T00:53:41.900Z,99.99
2018-09-27T00:54:41.796Z,99.99
2018-09-27T00:55:41.699Z,99.99
2018-09-27T00:56:41.598Z,99.99
2018-09-27T00:57:41.519Z,99.99
2018-09-27T00:58:41.405Z,99.99
2018-09-27T00:59:41.306Z,99.99
2018-09-27T01:00:41.209Z,99.99
2018-09-27T01:01:41.112Z,99.99
2018-09-27T01:02:41.029Z,99.99
2018-09-27T01:03:40.929Z,99.99
2018-09-27T01:04:40.915Z,99.99
2018-09-27T01:05:40.719Z,99.99
2018-09-27T01:06:40.624Z,99.99
2018-09-27T01:07:40.537Z,99.99
2018-09-27T01:08:40.439Z,99.99
2018-09-27T01:09:40.329Z,99.99
2018-09-27T01:10:40.232Z,99.99
2018-09-27T01:11:40.236Z,99.99
2018-09-27T01:12:40.050Z,99.99
2018-09-27T01:13:39.936Z,99.99
2018-09-27T01:14:39.838Z,99.99
2018-09-27T01:15:39.738Z,99.99
2018-09-27T01:16:39.643Z,99.99
2018-09-27T01:17:39.562Z,99.99
2018-09-27T01:18:39.554Z,99.99
2018-09-27T01:19:39.348Z,99.99
2018-09-27T01:20:39.249Z,99.99
2018-09-27T01:21:39.156Z,99.99
2018-09-27T01:22:39.072Z,99.99
2018-09-27T01:23:38.959Z,99.99
2018-09-27T01:24:38.861Z,99.99
2018-09-27T01:25:38.858Z,99.99
2018-09-27T01:26:38.665Z,99.99
2018-09-27T01:27:38.583Z,99.99
2018-09-27T01:28:38.470Z,99.99
2018-09-27T01:29:38.370Z,99.99
2018-09-27T01:30:38.271Z,99.99
2018-09-27T01:31:38.172Z,99.99
2018-09-27T01:32:38.215Z,99.99
2018-09-27T01:33:37.976Z,99.99
2018-09-27T01:34:37.880Z,99.99
2018-09-27T01:35:37.779Z,99.99
2018-09-27T01:36:37.682Z,99.99
2018-09-27T01:37:37.605Z,99.99
2018-09-27T01:38:37.488Z,99.99
2018-09-27T01:39:37.484Z,99.99
2018-09-27T01:40:37.288Z,99.99
2018-09-27T01:41:37.196Z,99.99
2018-09-27T01:42:37.112Z,99.99
2018-09-27T01:43:36.996Z,99.99
2018-09-27T01:44:36.895Z,99.99
2018-09-27T01:45:36.801Z,99.99
2018-09-27T01:46:36.803Z,99.99
2018-09-27T01:47:36.622Z,99.99
2018-09-27T01:48:36.505Z,99.99
2018-09-27T01:49:36.430Z,99.99
2018-09-27T01:50:36.339Z,99.99
2018-09-27T01:51:36.211Z,99.99
2018-09-27T01:52:36.128Z,99.99
2018-09-27T01:53:36.117Z,99.99
2018-09-27T01:54:35.919Z,99.99
2018-09-27T01:55:35.822Z,99.99
2018-09-27T01:56:35.722Z,99.99
2018-09-27T01:57:35.641Z,99.99
2018-09-27T01:58:35.526Z,99.99
2018-09-27T01:59:35.425Z,99.99
2018-09-27T02:00:35.431Z,99.99
2018-09-27T02:01:35.237Z,99.99
2018-09-27T02:02:35.132Z,99.99
2018-09-27T02:03:35.053Z,99.99
2018-09-27T02:04:34.939Z,99.99
2018-09-27T02:05:34.836Z,99.99
2018-09-27T02:06:34.743Z,99.99
2018-09-27T02:07:34.744Z,99.99
2018-09-27T02:08:34.561Z,99.99
2018-09-27T02:09:34.450Z,99.99
2018-09-27T02:10:34.349Z,99.99
2018-09-27T02:11:34.253Z,99.99
2018-09-27T02:12:34.153Z,99.99
2018-09-27T02:13:34.069Z,99.99
2018-09-27T02:14:34.055Z,99.99
2018-09-27T02:15:33.854Z,99.99
2018-09-27T02:16:33.759Z,99.99
2018-09-27T02:17:33.661Z,99.99
2018-09-27T02:18:33.578Z,99.99
2018-09-27T02:19:33.465Z,99.99
2018-09-27T02:20:33.368Z,99.99
2018-09-27T02:21:33.268Z,99.99
2018-09-27T02:22:33.182Z,99.99
2018-09-27T02:23:33.086Z,99.99
2018-09-27T02:24:32.975Z,99.99
2018-09-27T02:25:32.876Z,99.99
2018-09-27T02:26:32.780Z,99.99
2018-09-27T02:27:32.676Z,99.99
2018-09-27T02:28:32.598Z,99.99
2018-09-27T02:29:32.482Z,99.99
2018-09-27T02:30:32.381Z,99.99
2018-09-27T02:31:32.286Z,99.99
2018-09-27T02:32:32.197Z,99.99
2018-09-27T02:33:32.111Z,99.99
2018-09-27T02:34:31.993Z,99.99
2018-09-27T02:35:31.895Z,99.99
2018-09-27T02:36:31.790Z,99.99
2018-09-27T02:37:31.699Z,99.99
2018-09-27T02:38:31.612Z,99.99
2018-09-27T02:39:31.497Z,99.99
2018-09-27T02:40:31.401Z,99.99
2018-09-27T02:41:31.303Z,99.99
2018-09-27T02:42:31.203Z,99.99
2018-09-27T02:43:31.122Z,99.99
2018-09-27T02:44:31.008Z,99.99
2018-09-27T02:45:30.909Z,99.99
2018-09-27T02:46:30.818Z,99.99
2018-09-27T02:47:30.712Z,99.99
2018-09-27T02:48:30.640Z,99.99
2018-09-27T02:49:30.518Z,99.99
2018-09-27T02:50:30.418Z,99.99
2018-09-27T02:51:30.321Z,99.99
2018-09-27T02:52:30.224Z,99.99
2018-09-27T02:53:30.140Z,99.99
2018-09-27T02:54:30.027Z,99.99
2018-09-27T02:55:29.932Z,99.99
2018-09-27T02:56:29.832Z,99.99
2018-09-27T02:57:29.734Z,99.99
2018-09-27T02:58:29.655Z,99.99
2018-09-27T02:59:29.537Z,99.99
2018-09-27T03:00:29.438Z,99.99
2018-09-27T03:01:29.342Z,99.99
2018-09-27T03:02:29.245Z,99.99
2018-09-27T03:03:29.159Z,99.99
2018-09-27T03:04:29.047Z,99.99
2018-09-27T03:05:28.950Z,99.99
2018-09-27T03:06:28.852Z,99.99
2018-09-27T03:07:28.752Z,99.99
2018-09-27T03:08:28.673Z,99.99
2018-09-27T03:09:28.559Z,99.99
2018-09-27T03:10:28.458Z,99.99
2018-09-27T03:11:28.359Z,99.99
2018-09-27T03:12:28.262Z,99.99
2018-09-27T03:13:28.180Z,99.99
2018-09-27T03:14:28.066Z,99.99
2018-09-27T03:15:27.967Z,99.99
2018-09-27T03:16:27.870Z,99.99
2018-09-27T03:17:27.776Z,99.99
2018-09-27T03:18:27.689Z,99.99
2018-09-27T03:19:27.577Z,99.99
2018-09-27T03:20:27.477Z,99.99
2018-09-27T03:21:27.379Z,99.99
2018-09-27T03:22:27.294Z,99.99
2018-09-27T03:23:27.200Z,99.99
2018-09-27T03:24:27.085Z,99.99
2018-09-27T03:25:26.991Z,99.99
2018-09-27T03:26:26.888Z,99.99
2018-09-27T03:27:26.793Z,99.99
2018-09-27T03:28:26.709Z,99.99
2018-09-27T03:29:26.597Z,99.99
2018-09-27T03:30:26.498Z,99.99
2018-09-27T03:31:26.401Z,99.99
2018-09-27T03:32:26.309Z,99.99
2018-09-27T03:33:26.219Z,99.99
2018-09-27T03:34:26.107Z,99.99
2018-09-27T03:35:26.012Z,99.99
2018-09-27T03:36:25.907Z,99.99
2018-09-27T03:37:25.811Z,99.99
2018-09-27T03:38:25.739Z,99.99
2018-09-27T03:39:25.620Z,99.99
2018-09-27T03:40:25.520Z,99.99
2018-09-27T03:41:25.419Z,99.99
2018-09-27T03:42:25.321Z,99.99
2018-09-27T03:43:25.242Z,99.99
2018-09-27T03:44:25.229Z,99.99
2018-09-27T03:45:25.026Z,99.99
2018-09-27T03:46:24.927Z,99.99
2018-09-27T03:47:24.830Z,99.99
2018-09-27T03:48:24.734Z,99.99
2018-09-27T03:49:24.675Z,99.99
2018-09-27T03:50:24.536Z,99.99
2018-09-27T03:51:24.490Z,99.99
2018-09-27T03:52:24.342Z,99.99
2018-09-27T03:53:24.244Z,99.99
2018-09-27T03:54:24.160Z,99.99
2018-09-27T03:55:24.049Z,99.99
2018-09-27T03:56:23.946Z,99.99
2018-09-27T03:57:23.850Z,99.99
2018-09-27T03:58:23.757Z,99.99
2018-09-27T03:59:23.694Z,99.99
2018-09-27T04:00:23.554Z,99.99
2018-09-27T04:01:23.458Z,99.99
2018-09-27T04:02:23.359Z,99.99
2018-09-27T04:03:23.363Z,99.99
2018-09-27T04:04:23.180Z,99.99
2018-09-27T04:05:23.067Z,99.99
2018-09-27T04:06:22.966Z,99.99
2018-09-27T04:07:22.869Z,99.99
2018-09-27T04:08:22.776Z,99.99
2018-09-27T04:09:22.691Z,99.99
2018-09-27T04:10:22.577Z,99.99
2018-09-27T04:11:22.477Z,99.99
2018-09-27T04:12:22.378Z,99.99
2018-09-27T04:13:22.279Z,99.99
2018-09-27T04:14:22.202Z,99.99
2018-09-27T04:15:22.085Z,99.99
2018-09-27T04:16:21.987Z,99.99
2018-09-27T04:17:21.892Z,99.99
2018-09-27T04:18:22.492Z,99.99
2018-09-27T04:19:21.711Z,99.99
2018-09-27T04:20:21.596Z,99.99
2018-09-27T04:21:21.495Z,99.99
2018-09-27T04:22:21.399Z,99.99
2018-09-27T04:23:21.301Z,99.99
2018-09-27T04:24:21.220Z,99.99
2018-09-27T04:25:21.109Z,99.99
2018-09-27T04:26:21.006Z,99.99
2018-09-27T04:27:21.100Z,99.99
2018-09-27T04:28:20.812Z,99.99
2018-09-27T04:29:20.729Z,99.99
2018-09-27T04:30:20.616Z,99.99
2018-09-27T04:31:20.517Z,99.99
2018-09-27T04:32:20.419Z,99.99
2018-09-27T04:33:20.323Z,99.99
2018-09-27T04:34:20.345Z,99.99
2018-09-27T04:35:20.127Z,99.99
2018-09-27T04:36:20.028Z,99.99
2018-09-27T04:37:19.930Z,99.99
2018-09-27T04:38:19.832Z,99.99
2018-09-27T04:39:19.750Z,99.99
2018-09-27T04:40:19.633Z,99.99
2018-09-27T04:41:19.643Z,99.99
2018-09-27T04:42:19.437Z,99.99
2018-09-27T04:43:19.340Z,99.99
2018-09-27T04:44:19.257Z,99.99
2018-09-27T04:45:19.144Z,99.99
2018-09-27T04:46:19.051Z,99.99
2018-09-27T04:47:18.946Z,99.99
2018-09-27T04:48:18.958Z,99.99
2018-09-27T04:49:18.767Z,99.99
2018-09-27T04:50:18.653Z,99.99
2018-09-27T04:51:18.556Z,99.99
2018-09-27T04:52:18.458Z,99.99
2018-09-27T04:53:18.358Z,99.99
2018-09-27T04:54:18.326Z,99.99
2018-09-27T04:55:18.265Z,99.99
2018-09-27T04:56:18.063Z,99.99
2018-09-27T04:57:17.966Z,99.99
2018-09-27T04:58:17.874Z,99.99
2018-09-27T04:59:17.789Z,99.99
2018-09-27T05:00:17.681Z,99.99
2018-09-27T05:01:17.576Z,99.99
2018-09-27T05:02:17.580Z,99.99
2018-09-27T05:03:17.377Z,99.99
2018-09-27T05:04:17.296Z,99.99
2018-09-27T05:05:17.182Z,99.99
2018-09-27T05:06:17.089Z,99.99
2018-09-27T05:07:16.986Z,99.99
2018-09-27T05:08:16.886Z,99.99
2018-09-27T05:09:16.907Z,99.99
2018-09-27T05:10:16.691Z,99.99
2018-09-27T05:11:16.594Z,99.99
2018-09-27T05:12:16.494Z,99.99
2018-09-27T05:13:16.397Z,99.99
2018-09-27T05:14:16.313Z,99.99
2018-09-27T05:15:16.325Z,99.99
2018-09-27T05:16:16.103Z,99.99
2018-09-27T05:17:16.002Z,99.99
2018-09-27T05:18:15.910Z,99.99
2018-09-27T05:19:15.824Z,99.99
2018-09-27T05:20:15.710Z,99.99
2018-09-27T05:21:15.621Z,99.99
2018-09-27T05:22:15.614Z,99.99
2018-09-27T05:23:15.413Z,99.99
2018-09-27T05:24:15.335Z,99.99
2018-09-27T05:25:15.231Z,99.99
2018-09-27T05:26:15.121Z,99.99
2018-09-27T05:27:15.083Z,99.99
2018-09-27T05:28:14.923Z,99.99
2018-09-27T05:29:14.840Z,99.99
2018-09-27T05:30:14.728Z,99.99
2018-09-27T05:31:14.631Z,99.99
2018-09-27T05:32:14.532Z,99.99
2018-09-27T05:33:14.435Z,99.99
2018-09-27T05:34:14.336Z,99.99
2018-09-27T05:35:14.268Z,99.99
2018-09-27T05:36:14.141Z,99.99
2018-09-27T05:37:14.043Z,99.99
2018-09-27T05:38:13.944Z,99.99
2018-09-27T05:39:13.846Z,99.99
2018-09-27T05:40:13.764Z,99.99
2018-09-27T05:41:13.650Z,99.99
2018-09-27T05:42:13.554Z,99.99
2018-09-27T05:43:13.452Z,99.99
2018-09-27T05:44:13.356Z,99.99
2018-09-27T05:45:13.273Z,99.99
2018-09-27T05:46:13.160Z,99.99
2018-09-27T05:47:13.061Z,99.99
2018-09-27T05:48:12.964Z,99.99
2018-09-27T05:49:12.869Z,99.99
2018-09-27T05:50:12.786Z,99.99
2018-09-27T05:51:12.668Z,99.99
2018-09-27T05:52:12.570Z,99.99
2018-09-27T05:53:12.473Z,99.99
2018-09-27T05:54:12.377Z,99.99
2018-09-27T05:55:12.290Z,99.99
2018-09-27T05:56:12.178Z,99.99
2018-09-27T05:57:12.085Z,99.99
2018-09-27T05:58:11.986Z,99.99
2018-09-27T05:59:11.885Z,99.99
2018-09-27T06:00:11.803Z,99.99
2018-09-27T06:01:11.692Z,99.99
2018-09-27T06:02:11.603Z,99.99
2018-09-27T06:03:11.492Z,99.99
2018-09-27T06:04:11.395Z,99.99
2018-09-27T06:05:11.316Z,99.99
2018-09-27T06:06:11.203Z,99.99
2018-09-27T06:07:11.108Z,99.99
2018-09-27T06:08:11.011Z,99.99
2018-09-27T06:09:10.915Z,99.99
2018-09-27T06:10:10.840Z,99.99
2018-09-27T06:11:10.725Z,99.99
2018-09-27T06:12:10.629Z,99.99
2018-09-27T06:13:10.532Z,99.60
2018-09-27T06:14:10.439Z,99.99
2018-09-27T06:15:10.356Z,99.99
2018-09-27T06:16:10.246Z,99.99
2018-09-27T06:17:10.153Z,99.75
2018-09-27T06:18:10.058Z,98.65
2018-09-27T06:19:09.963Z,97.89
2018-09-27T06:20:09.887Z,96.27
2018-09-27T06:21:09.773Z,97.89
2018-09-27T06:22:09.682Z,97.41
2018-09-27T06:23:09.593Z,97.13
2018-09-27T06:24:09.498Z,97.80
2018-09-27T06:25:09.417Z,99.51
2018-09-27T06:26:09.378Z,99.99
2018-09-27T06:27:09.214Z,99.99
2018-09-27T06:28:09.120Z,99.56
2018-09-27T06:29:09.027Z,98.32
2018-09-27T06:30:08.947Z,97.66
2018-09-27T06:31:08.842Z,96.66
2018-09-27T06:32:08.854Z,96.56
2018-09-27T06:33:08.666Z,95.79
2018-09-27T06:34:08.571Z,96.75
2018-09-27T06:35:08.552Z,96.89
2018-09-27T06:36:08.384Z,96.61
2018-09-27T06:37:08.287Z,95.94
2018-09-27T06:38:08.197Z,94.65
2018-09-27T06:39:08.215Z,92.16
2018-09-27T06:40:08.028Z,92.16
2018-09-27T06:41:07.926Z,91.74
2018-09-27T06:42:07.832Z,93.70
2018-09-27T06:43:07.742Z,94.17
2018-09-27T06:44:07.666Z,93.36
2018-09-27T06:45:07.575Z,91.25
2018-09-27T06:46:07.575Z,90.39
2018-09-27T06:47:07.377Z,91.45
2018-09-27T06:48:07.338Z,89.63
2018-09-27T06:49:07.192Z,89.48
2018-09-27T06:50:07.129Z,90.53
2018-09-27T06:51:07.017Z,90.53
2018-09-27T06:52:06.928Z,91.49
2018-09-27T06:53:06.941Z,91.49
2018-09-27T06:54:06.789Z,90.39
2018-09-27T06:55:06.740Z,89.53
2018-09-27T06:56:06.624Z,88.19
2018-09-27T06:57:06.476Z,88.76
2018-09-27T06:58:06.393Z,88.15
2018-09-27T06:59:06.299Z,84.13
2018-09-27T07:00:06.342Z,83.94
2018-09-27T07:01:06.123Z,84.42
2018-09-27T07:02:06.032Z,85.51
2018-09-27T07:03:05.945Z,83.98
2018-09-27T07:04:05.855Z,83.69
2018-09-27T07:05:05.801Z,83.03
2018-09-27T07:06:05.682Z,83.64
2018-09-27T07:07:05.698Z,84.02
2018-09-27T07:08:05.498Z,81.86
2018-09-27T07:09:05.416Z,79.03
2018-09-27T07:10:05.341Z,79.16
2018-09-27T07:11:05.235Z,79.64
2018-09-27T07:12:05.196Z,79.55
2018-09-27T07:13:05.058Z,76.86
2018-09-27T07:14:05.077Z,75.04
2018-09-27T07:15:04.899Z,74.79
2018-09-27T07:16:04.794Z,71.92
2018-09-27T07:17:04.706Z,71.82
2018-09-27T07:18:04.621Z,73.83
2018-09-27T07:19:04.540Z,77.67
2018-09-27T07:20:04.446Z,77.09
2018-09-27T07:21:04.478Z,76.04
2018-09-27T07:22:04.275Z,75.12
2018-09-27T07:23:04.182Z,75.98
2018-09-27T07:24:04.095Z,73.52
2018-09-27T07:25:04.051Z,67.80
2018-09-27T07:26:03.936Z,64.47
2018-09-27T07:27:04.030Z,64.09
2018-09-27T07:28:03.748Z,62.07
2018-09-27T07:29:03.664Z,61.87
2018-09-27T07:30:03.576Z,60.91
2018-09-27T07:31:03.546Z,60.66
2018-09-27T07:32:03.399Z,59.60
2018-09-27T07:33:03.315Z,60.21
2018-09-27T07:34:03.228Z,59.53
2018-09-27T07:35:03.255Z,59.72
2018-09-27T07:36:03.073Z,58.89
2018-09-27T07:37:02.970Z,58.89
2018-09-27T07:38:02.903Z,60.24
2018-09-27T07:39:02.797Z,59.59
2018-09-27T07:40:02.714Z,58.70
2018-09-27T07:41:02.751Z,58.60
2018-09-27T07:42:02.543Z,57.37
2018-09-27T07:43:02.462Z,56.80
2018-09-27T07:44:02.374Z,55.83
2018-09-27T07:45:02.288Z,55.29
2018-09-27T07:46:02.230Z,55.19
2018-09-27T07:47:02.120Z,55.67
2018-09-27T07:48:02.031Z,56.09
2018-09-27T07:49:01.949Z,55.22
2018-09-27T07:50:01.865Z,55.05
2018-09-27T07:51:01.795Z,54.11
2018-09-27T07:52:01.699Z,55.20
2018-09-27T07:53:01.618Z,56.07
2018-09-27T07:54:01.529Z,53.08
2018-09-27T07:55:01.447Z,51.25
2018-09-27T07:56:01.374Z,50.28
2018-09-27T07:57:01.276Z,51.03
2018-09-27T07:58:01.196Z,52.45
2018-09-27T07:59:01.111Z,52.45
2018-09-27T08:00:01.045Z,53.61
2018-09-27T08:01:00.971Z,52.79
2018-09-27T08:02:00.859Z,51.82
2018-09-27T08:03:00.888Z,50.76
2018-09-27T08:04:00.732Z,50.59
2018-09-27T08:05:00.609Z,50.38
2018-09-27T08:06:00.542Z,50.57
2018-09-27T08:07:00.445Z,51.92
2018-09-27T08:08:00.362Z,53.44
2018-09-27T08:09:00.284Z,52.89
2018-09-27T08:10:00.198Z,51.25
2018-09-27T08:11:00.173Z,50.84
2018-09-27T08:12:00.095Z,53.13
2018-09-27T08:12:59.949Z,52.95
2018-09-27T08:13:59.865Z,51.15
2018-09-27T08:14:59.782Z,47.58
2018-09-27T08:15:59.718Z,46.61
2018-09-27T08:16:59.655Z,48.47
2018-09-27T08:17:59.537Z,48.95
2018-09-27T08:18:59.454Z,47.70
2018-09-27T08:19:59.371Z,47.70
2018-09-27T08:20:59.408Z,47.31
2018-09-27T08:21:59.209Z,45.09
2018-09-27T08:22:59.121Z,46.23
2018-09-27T08:23:59.097Z,47.48
2018-09-27T08:24:58.962Z,46.92
2018-09-27T08:25:58.894Z,47.07
2018-09-27T08:26:58.795Z,47.44
2018-09-27T08:27:58.713Z,47.29
2018-09-27T08:28:58.634Z,45.75
2018-09-27T08:29:58.554Z,45.09
2018-09-27T08:30:58.581Z,45.79
2018-09-27T08:31:58.387Z,43.98
2018-09-27T08:32:58.303Z,44.26
2018-09-27T08:33:58.222Z,43.68
2018-09-27T08:34:58.139Z,43.41
2018-09-27T08:35:58.074Z,43.78
2018-09-27T08:36:57.976Z,43.95
2018-09-27T08:37:57.895Z,46.17
2018-09-27T08:38:57.813Z,44.56
2018-09-27T08:39:57.729Z,43.10
2018-09-27T08:40:57.667Z,44.82
2018-09-27T08:41:57.563Z,45.79
2018-09-27T08:42:57.483Z,46.17
2018-09-27T08:43:57.507Z,43.20
2018-09-27T08:44:57.481Z,43.61
2018-09-27T08:45:57.303Z,42.66
2018-09-27T08:46:57.157Z,41.21
2018-09-27T08:47:57.076Z,40.94
2018-09-27T08:48:56.995Z,40.94
2018-09-27T08:49:56.912Z,41.62
2018-09-27T08:50:56.850Z,39.49
2018-09-27T08:51:56.752Z,40.46
2018-09-27T08:52:56.666Z,40.84
2018-09-27T08:53:56.587Z,39.29
2018-09-27T08:54:56.504Z,39.41
2018-09-27T08:55:56.514Z,40.96
2018-09-27T08:56:56.344Z,41.16
2018-09-27T08:57:56.372Z,41.82
2018-09-27T08:58:56.179Z,42.30
2018-09-27T08:59:56.099Z,41.72
2018-09-27T09:00:56.034Z,40.83
2018-09-27T09:01:55.939Z,40.56
2018-09-27T09:02:55.863Z,40.75
2018-09-27T09:03:55.808Z,40.07
2018-09-27T09:04:55.807Z,39.78
2018-09-27T09:05:55.628Z,38.23
2018-09-27T09:06:55.533Z,38.21
2018-09-27T09:07:55.453Z,37.73
2018-09-27T09:08:55.370Z,37.38
2018-09-27T09:09:55.288Z,36.99
2018-09-27T09:10:55.210Z,35.91
2018-09-27T09:11:55.154Z,38.87
2018-09-27T09:12:55.048Z,38.46
2018-09-27T09:13:54.969Z,39.49
2018-09-27T09:14:54.886Z,43.95
2018-09-27T09:15:54.810Z,46.25
2018-09-27T09:16:54.743Z,46.10
2018-09-27T09:17:54.648Z,43.73
2018-09-27T09:18:54.685Z,42.28
2018-09-27T09:19:54.484Z,40.53
2018-09-27T09:20:54.406Z,39.28
2018-09-27T09:21:54.342Z,41.56
2018-09-27T09:22:54.241Z,43.08
2018-09-27T09:23:54.164Z,43.37
2018-09-27T09:24:54.081Z,43.08
2018-09-27T09:25:54.126Z,43.10
2018-09-27T09:26:53.941Z,41.71
2018-09-27T09:27:53.846Z,42.39
2018-09-27T09:28:53.756Z,42.70
2018-09-27T09:29:53.723Z,45.09
2018-09-27T09:30:53.596Z,46.81
2018-09-27T09:31:53.538Z,50.01
2018-09-27T09:32:53.436Z,48.18
2018-09-27T09:33:53.357Z,47.72
2018-09-27T09:34:53.274Z,47.77
2018-09-27T09:35:53.208Z,48.57
2018-09-27T09:36:53.125Z,46.92
2018-09-27T09:37:53.028Z,47.38
2018-09-27T09:38:52.945Z,50.47
2018-09-27T09:39:52.864Z,48.28
2018-09-27T09:40:52.784Z,47.99
2018-09-27T09:41:52.720Z,48.74
2018-09-27T09:42:52.621Z,49.80
2018-09-27T09:43:52.539Z,50.38
2018-09-27T09:44:52.456Z,50.45
2018-09-27T09:45:52.378Z,52.76
2018-09-27T09:46:52.309Z,53.92
2018-09-27T09:47:52.212Z,53.05
2018-09-27T09:48:52.132Z,52.69
2018-09-27T09:49:52.051Z,51.92
2018-09-27T09:50:51.964Z,52.76
2018-09-27T09:51:51.901Z,53.15
2018-09-27T09:52:51.802Z,50.42
2018-09-27T09:53:51.718Z,51.05
2018-09-27T09:54:51.638Z,52.49
2018-09-27T09:55:51.554Z,52.81
2018-09-27T09:56:51.487Z,53.41
2018-09-27T09:57:51.389Z,52.28
2018-09-27T09:58:51.303Z,52.59
2018-09-27T09:59:51.221Z,52.04
2018-09-27T10:00:51.141Z,50.55
2018-09-27T10:01:51.175Z,48.61
2018-09-27T10:02:50.974Z,48.71
2018-09-27T10:03:50.889Z,47.33
2018-09-27T10:04:50.808Z,48.86
2018-09-27T10:05:50.723Z,48.95
2018-09-27T10:06:50.654Z,49.37
2018-09-27T10:07:50.560Z,48.47
2018-09-27T10:08:50.603Z,49.39
2018-09-27T10:09:50.394Z,49.12
2018-09-27T10:10:50.310Z,47.13
2018-09-27T10:11:50.247Z,44.03
2018-09-27T10:12:50.149Z,43.88
2018-09-27T10:13:50.068Z,43.54
2018-09-27T10:14:49.984Z,44.00
2018-09-27T10:15:50.011Z,41.78
2018-09-27T10:16:49.842Z,41.49
2018-09-27T10:17:49.743Z,42.94
2018-09-27T10:18:49.664Z,45.89
2018-09-27T10:19:49.580Z,48.49
2018-09-27T10:20:49.497Z,48.22
2018-09-27T10:21:49.491Z,47.16
2018-09-27T10:22:49.436Z,45.92
2018-09-27T10:23:49.258Z,44.03
2018-09-27T10:24:49.176Z,44.45
2018-09-27T10:25:49.097Z,47.06
2018-09-27T10:26:49.029Z,50.35
2018-09-27T10:27:48.952Z,50.74
2018-09-27T10:28:48.859Z,47.50
2018-09-27T10:29:48.895Z,48.90
2018-09-27T10:30:48.694Z,49.87
2018-09-27T10:31:48.629Z,50.67
2018-09-27T10:32:48.533Z,53.50
2018-09-27T10:33:48.454Z,50.82
2018-09-27T10:34:48.374Z,50.14
2018-09-27T10:35:48.292Z,50.43
2018-09-27T10:36:48.229Z,50.43
2018-09-27T10:37:48.132Z,50.40
2018-09-27T10:38:48.048Z,49.17
2018-09-27T10:39:47.967Z,49.46
2018-09-27T10:40:47.888Z,49.46
2018-09-27T10:41:47.833Z,51.68
2018-09-27T10:42:47.727Z,51.78
2018-09-27T10:43:47.644Z,53.65
2018-09-27T10:44:47.576Z,51.72
2018-09-27T10:45:47.483Z,52.17
2018-09-27T10:46:47.418Z,52.17
2018-09-27T10:47:47.324Z,51.68
2018-09-27T10:48:47.240Z,52.17
2018-09-27T10:49:47.162Z,53.85
2018-09-27T10:50:47.078Z,53.49
2018-09-27T10:51:47.016Z,52.12
2018-09-27T10:52:46.915Z,52.66
2018-09-27T10:53:46.839Z,52.01
2018-09-27T10:54:46.761Z,51.23
2018-09-27T10:55:46.674Z,49.73
2018-09-27T10:56:46.594Z,49.37
2018-09-27T10:57:46.530Z,50.16
2018-09-27T10:58:46.433Z,52.23
2018-09-27T10:59:46.413Z,51.62
2018-09-27T11:00:46.270Z,51.33
2018-09-27T11:01:46.194Z,52.28
2018-09-27T11:02:46.124Z,54.05
2018-09-27T11:03:46.029Z,52.81
2018-09-27T11:04:45.954Z,52.25
2018-09-27T11:05:45.905Z,51.21
2018-09-27T11:06:45.793Z,52.96
2018-09-27T11:07:45.726Z,56.62
2018-09-27T11:08:45.629Z,54.03
2018-09-27T11:09:45.549Z,54.00
2018-09-27T11:10:45.467Z,53.54
2018-09-27T11:11:45.392Z,53.67
2018-09-27T11:12:45.327Z,53.91
2018-09-27T11:13:45.233Z,55.53
2018-09-27T11:14:45.155Z,57.25
2018-09-27T11:15:45.075Z,58.05
2018-09-27T11:16:45.086Z,58.47
2018-09-27T11:17:44.930Z,55.49
2018-09-27T11:18:44.833Z,54.10
2018-09-27T11:19:44.755Z,53.89
2018-09-27T11:20:44.675Z,55.16
2018-09-27T11:21:44.596Z,55.60
2018-09-27T11:22:44.537Z,53.63
2018-09-27T11:23:44.441Z,54.21
2018-09-27T11:24:44.359Z,54.34
2018-09-27T11:25:44.280Z,52.03
2018-09-27T11:26:44.198Z,51.28
2018-09-27T11:27:44.504Z,52.72
2018-09-27T11:28:44.041Z,52.69
2018-09-27T11:29:43.959Z,52.59
2018-09-27T11:30:43.884Z,52.62
2018-09-27T11:31:43.802Z,53.30
2018-09-27T11:32:43.738Z,52.74
2018-09-27T11:33:43.644Z,51.93
2018-09-27T11:34:43.569Z,51.06
2018-09-27T11:35:43.494Z,51.35
2018-09-27T11:36:43.407Z,51.26
2018-09-27T11:37:43.341Z,52.81
2018-09-27T11:38:43.374Z,52.72
2018-09-27T11:39:43.172Z,51.48
2018-09-27T11:40:43.090Z,48.39
2018-09-27T11:41:43.011Z,50.04
2018-09-27T11:42:42.977Z,49.02
2018-09-27T11:43:42.852Z,50.48
2018-09-27T11:44:42.773Z,52.13
2018-09-27T11:45:42.802Z,49.51
2018-09-27T11:46:42.614Z,50.09
2018-09-27T11:47:42.552Z,48.88
2018-09-27T11:48:42.459Z,48.20
2018-09-27T11:49:42.528Z,48.61
2018-09-27T11:50:42.296Z,48.35
2018-09-27T11:51:42.217Z,48.44
2018-09-27T11:52:42.256Z,48.18
2018-09-27T11:53:42.060Z,48.47
2018-09-27T11:54:41.983Z,48.00
2018-09-27T11:55:41.901Z,49.17
2018-09-27T11:56:41.823Z,48.80
2018-09-27T11:57:41.763Z,48.30
2018-09-27T11:58:41.666Z,50.92
2018-09-27T11:59:41.686Z,51.01
2018-09-27T12:00:41.521Z,50.77
2018-09-27T12:01:41.446Z,50.12
2018-09-27T12:02:41.368Z,49.56
2018-09-27T12:03:41.268Z,47.91
2018-09-27T12:04:41.188Z,48.18
2018-09-27T12:05:41.112Z,49.61
2018-09-27T12:06:41.173Z,48.90
2018-09-27T12:07:41.032Z,49.58
2018-09-27T12:08:40.874Z,48.61
2018-09-27T12:09:40.795Z,48.25
2018-09-27T12:10:40.715Z,48.44
2018-09-27T12:11:40.641Z,49.49
2018-09-27T12:12:40.574Z,49.95
2018-09-27T12:13:40.585Z,49.61
2018-09-27T12:14:40.457Z,48.66
2018-09-27T12:15:40.318Z,48.90
2018-09-27T12:16:40.246Z,48.22
2018-09-27T12:17:40.209Z,47.23
2018-09-27T12:18:40.079Z,48.42
2018-09-27T12:19:40.043Z,49.02
2018-09-27T12:20:40.025Z,49.46
2018-09-27T12:21:39.838Z,49.68
2018-09-27T12:22:39.775Z,48.54
2018-09-27T12:23:39.679Z,50.12
2018-09-27T12:24:39.601Z,50.21
2018-09-27T12:25:39.548Z,49.56
2018-09-27T12:26:39.439Z,49.66
2018-09-27T12:27:39.483Z,48.58
2018-09-27T12:28:39.309Z,47.64
2018-09-27T12:29:39.209Z,46.47
2018-09-27T12:30:39.123Z,44.70
2018-09-27T12:31:39.044Z,46.52
2018-09-27T12:32:38.978Z,47.57
2018-09-27T12:33:38.890Z,48.37
2018-09-27T12:34:38.905Z,51.20
2018-09-27T12:35:38.722Z,50.74
2018-09-27T12:36:38.673Z,49.70
2018-09-27T12:37:38.580Z,49.39
2018-09-27T12:38:38.527Z,50.57
2018-09-27T12:39:38.416Z,52.19
2018-09-27T12:40:38.333Z,51.25
2018-09-27T12:41:38.393Z,50.28
2018-09-27T12:42:38.247Z,52.05
2018-09-27T12:43:38.078Z,51.98
2018-09-27T12:44:38.000Z,50.07
2018-09-27T12:45:38.053Z,49.54
2018-09-27T12:46:37.862Z,47.65
2018-09-27T12:47:37.758Z,48.79
2018-09-27T12:48:37.959Z,49.95
2018-09-27T12:49:37.595Z,50.79
2018-09-27T12:50:37.561Z,52.72
2018-09-27T12:51:37.549Z,51.37